sensor_id;sensor_type;location;lat;lon;timestamp;P1;durP1;ratioP1;P2;durP2;ratioP2
32693;SDS011;19084;44.716;10.218;2023-01-08T00:02:29;59.15;;;33.25;;
32693;SDS011;19084;44.716;10.218;2023-01-08T00:05:01;58.35;;;33.58;;
32693;SDS011;19084;44.716;10.218;2023-01-08T00:07:34;64.47;;;35.65;;
32693;SDS011;19084;44.716;10.218;2023-01-08T00:10:07;59.08;;;32.90;;
32693;SDS011;19084;44.716;10.218;2023-01-08T00:12:40;59.60;;;32.72;;
32693;SDS011;19084;44.716;10.218;2023-01-08T00:15:13;66.75;;;35.13;;
32693;SDS011;19084;44.716;10.218;2023-01-08T00:17:45;57.22;;;33.33;;
32693;SDS011;19084;44.716;10.218;2023-01-08T00:20:18;60.20;;;34.03;;
32693;SDS011;19084;44.716;10.218;2023-01-08T00:22:51;66.75;;;35.97;;
32693;SDS011;19084;44.716;10.218;2023-01-08T00:25:24;66.05;;;35.70;;
32693;SDS011;19084;44.716;10.218;2023-01-08T00:27:56;73.15;;;35.80;;
32693;SDS011;19084;44.716;10.218;2023-01-08T00:30:29;65.15;;;35.50;;
32693;SDS011;19084;44.716;10.218;2023-01-08T00:33:02;59.95;;;34.80;;
32693;SDS011;19084;44.716;10.218;2023-01-08T00:35:36;64.63;;;37.60;;
32693;SDS011;19084;44.716;10.218;2023-01-08T00:38:10;76.68;;;37.70;;
32693;SDS011;19084;44.716;10.218;2023-01-08T00:40:43;67.32;;;35.78;;
32693;SDS011;19084;44.716;10.218;2023-01-08T00:43:15;65.20;;;36.28;;
32693;SDS011;19084;44.716;10.218;2023-01-08T00:45:48;68.10;;;36.95;;
32693;SDS011;19084;44.716;10.218;2023-01-08T00:48:24;67.22;;;35.35;;
32693;SDS011;19084;44.716;10.218;2023-01-08T00:51:00;65.30;;;36.15;;
32693;SDS011;19084;44.716;10.218;2023-01-08T00:53:34;69.05;;;38.13;;
32693;SDS011;19084;44.716;10.218;2023-01-08T00:56:07;68.80;;;35.88;;
32693;SDS011;19084;44.716;10.218;2023-01-08T00:58:41;63.58;;;35.45;;
32693;SDS011;19084;44.716;10.218;2023-01-08T01:01:14;63.42;;;34.88;;
32693;SDS011;19084;44.716;10.218;2023-01-08T01:03:47;65.57;;;34.80;;
32693;SDS011;19084;44.716;10.218;2023-01-08T01:06:20;65.65;;;35.42;;
32693;SDS011;19084;44.716;10.218;2023-01-08T01:08:52;70.80;;;36.63;;
32693;SDS011;19084;44.716;10.218;2023-01-08T01:11:26;75.22;;;38.08;;
32693;SDS011;19084;44.716;10.218;2023-01-08T01:13:59;76.27;;;37.93;;
32693;SDS011;19084;44.716;10.218;2023-01-08T01:16:32;71.65;;;36.60;;
32693;SDS011;19084;44.716;10.218;2023-01-08T01:19:07;68.68;;;37.63;;
32693;SDS011;19084;44.716;10.218;2023-01-08T01:21:40;74.50;;;38.85;;
32693;SDS011;19084;44.716;10.218;2023-01-08T01:24:13;67.28;;;36.65;;
32693;SDS011;19084;44.716;10.218;2023-01-08T01:26:46;64.60;;;36.95;;
32693;SDS011;19084;44.716;10.218;2023-01-08T01:29:18;72.82;;;37.85;;
32693;SDS011;19084;44.716;10.218;2023-01-08T01:31:51;66.07;;;34.72;;
32693;SDS011;19084;44.716;10.218;2023-01-08T01:34:23;76.20;;;36.53;;
32693;SDS011;19084;44.716;10.218;2023-01-08T01:36:56;70.32;;;36.47;;
32693;SDS011;19084;44.716;10.218;2023-01-08T01:39:28;67.63;;;37.50;;
32693;SDS011;19084;44.716;10.218;2023-01-08T01:42:01;76.03;;;40.10;;
32693;SDS011;19084;44.716;10.218;2023-01-08T01:52:41;68.55;;;37.35;;
32693;SDS011;19084;44.716;10.218;2023-01-08T01:55:16;66.47;;;36.92;;
32693;SDS011;19084;44.716;10.218;2023-01-08T01:57:50;68.68;;;37.08;;
32693;SDS011;19084;44.716;10.218;2023-01-08T02:00:28;72.88;;;37.75;;
32693;SDS011;19084;44.716;10.218;2023-01-08T02:03:02;68.40;;;37.80;;
32693;SDS011;19084;44.716;10.218;2023-01-08T02:05:41;62.65;;;35.70;;
32693;SDS011;19084;44.716;10.218;2023-01-08T02:08:26;58.53;;;34.50;;
32693;SDS011;19084;44.716;10.218;2023-01-08T02:11:10;65.20;;;36.15;;
32693;SDS011;19084;44.716;10.218;2023-01-08T02:13:47;69.65;;;37.83;;
32693;SDS011;19084;44.716;10.218;2023-01-08T02:16:31;66.18;;;35.95;;
32693;SDS011;19084;44.716;10.218;2023-01-08T02:22:23;63.65;;;36.28;;
32693;SDS011;19084;44.716;10.218;2023-01-08T02:25:21;59.72;;;34.92;;
32693;SDS011;19084;44.716;10.218;2023-01-08T02:28:15;63.90;;;36.22;;
32693;SDS011;19084;44.716;10.218;2023-01-08T02:30:48;62.72;;;37.15;;
32693;SDS011;19084;44.716;10.218;2023-01-08T02:33:22;65.53;;;37.33;;
32693;SDS011;19084;44.716;10.218;2023-01-08T02:38:47;66.50;;;38.67;;
32693;SDS011;19084;44.716;10.218;2023-01-08T02:41:47;66.15;;;38.35;;
32693;SDS011;19084;44.716;10.218;2023-01-08T02:47:28;72.53;;;39.20;;
32693;SDS011;19084;44.716;10.218;2023-01-08T02:55:33;69.10;;;38.70;;
32693;SDS011;19084;44.716;10.218;2023-01-08T02:58:08;66.03;;;38.47;;
32693;SDS011;19084;44.716;10.218;2023-01-08T03:00:42;77.38;;;39.85;;
32693;SDS011;19084;44.716;10.218;2023-01-08T03:03:18;73.88;;;38.25;;
32693;SDS011;19084;44.716;10.218;2023-01-08T03:05:55;64.63;;;36.80;;
32693;SDS011;19084;44.716;10.218;2023-01-08T03:08:32;74.95;;;39.95;;
32693;SDS011;19084;44.716;10.218;2023-01-08T03:11:09;81.72;;;42.30;;
32693;SDS011;19084;44.716;10.218;2023-01-08T03:16:35;71.70;;;38.83;;
32693;SDS011;19084;44.716;10.218;2023-01-08T03:19:18;65.55;;;37.97;;
32693;SDS011;19084;44.716;10.218;2023-01-08T03:21:56;75.32;;;40.17;;
32693;SDS011;19084;44.716;10.218;2023-01-08T03:24:31;65.95;;;37.72;;
32693;SDS011;19084;44.716;10.218;2023-01-08T03:27:09;76.97;;;40.83;;
32693;SDS011;19084;44.716;10.218;2023-01-08T03:29:46;68.47;;;38.67;;
32693;SDS011;19084;44.716;10.218;2023-01-08T03:32:23;83.43;;;42.75;;
32693;SDS011;19084;44.716;10.218;2023-01-08T03:34:58;75.70;;;41.30;;
32693;SDS011;19084;44.716;10.218;2023-01-08T03:37:34;83.50;;;42.88;;
32693;SDS011;19084;44.716;10.218;2023-01-08T03:40:12;81.80;;;41.83;;
32693;SDS011;19084;44.716;10.218;2023-01-08T03:42:51;79.78;;;43.20;;
32693;SDS011;19084;44.716;10.218;2023-01-08T03:45:24;78.57;;;42.65;;
32693;SDS011;19084;44.716;10.218;2023-01-08T03:47:58;94.03;;;45.55;;
32693;SDS011;19084;44.716;10.218;2023-01-08T03:50:33;61.47;;;30.65;;
32693;SDS011;19084;44.716;10.218;2023-01-08T03:53:07;87.15;;;43.42;;
32693;SDS011;19084;44.716;10.218;2023-01-08T03:55:40;86.07;;;44.07;;
32693;SDS011;19084;44.716;10.218;2023-01-08T03:58:13;88.88;;;43.55;;
32693;SDS011;19084;44.716;10.218;2023-01-08T04:00:45;86.43;;;44.40;;
32693;SDS011;19084;44.716;10.218;2023-01-08T04:03:18;99.97;;;48.72;;
32693;SDS011;19084;44.716;10.218;2023-01-08T04:05:51;90.70;;;44.58;;
32693;SDS011;19084;44.716;10.218;2023-01-08T04:08:24;92.35;;;46.95;;
32693;SDS011;19084;44.716;10.218;2023-01-08T04:10:56;87.53;;;46.22;;
32693;SDS011;19084;44.716;10.218;2023-01-08T04:13:29;99.95;;;48.42;;
32693;SDS011;19084;44.716;10.218;2023-01-08T04:16:01;115.60;;;49.92;;
32693;SDS011;19084;44.716;10.218;2023-01-08T04:18:34;102.55;;;47.15;;
32693;SDS011;19084;44.716;10.218;2023-01-08T04:21:07;103.43;;;49.50;;
32693;SDS011;19084;44.716;10.218;2023-01-08T04:23:39;113.65;;;49.85;;
32693;SDS011;19084;44.716;10.218;2023-01-08T04:26:12;123.50;;;52.30;;
32693;SDS011;19084;44.716;10.218;2023-01-08T04:28:44;117.80;;;50.65;;
32693;SDS011;19084;44.716;10.218;2023-01-08T04:31:17;126.78;;;53.85;;
32693;SDS011;19084;44.716;10.218;2023-01-08T04:33:50;133.52;;;53.45;;
32693;SDS011;19084;44.716;10.218;2023-01-08T04:36:22;120.35;;;50.13;;
32693;SDS011;19084;44.716;10.218;2023-01-08T04:38:55;110.30;;;49.65;;
32693;SDS011;19084;44.716;10.218;2023-01-08T04:41:27;109.60;;;50.35;;
32693;SDS011;19084;44.716;10.218;2023-01-08T04:44:00;103.78;;;49.63;;
32693;SDS011;19084;44.716;10.218;2023-01-08T04:46:32;99.85;;;48.72;;
32693;SDS011;19084;44.716;10.218;2023-01-08T04:49:05;100.93;;;48.92;;
32693;SDS011;19084;44.716;10.218;2023-01-08T04:51:37;104.75;;;48.90;;
32693;SDS011;19084;44.716;10.218;2023-01-08T04:54:10;106.88;;;49.97;;
32693;SDS011;19084;44.716;10.218;2023-01-08T04:56:43;112.70;;;50.28;;
32693;SDS011;19084;44.716;10.218;2023-01-08T04:59:16;115.85;;;50.15;;
32693;SDS011;19084;44.716;10.218;2023-01-08T05:01:48;114.28;;;51.63;;
32693;SDS011;19084;44.716;10.218;2023-01-08T05:04:21;122.25;;;53.85;;
32693;SDS011;19084;44.716;10.218;2023-01-08T05:06:54;120.22;;;52.42;;
32693;SDS011;19084;44.716;10.218;2023-01-08T05:09:27;124.65;;;53.47;;
32693;SDS011;19084;44.716;10.218;2023-01-08T05:11:59;111.80;;;51.28;;
32693;SDS011;19084;44.716;10.218;2023-01-08T05:14:32;117.40;;;52.67;;
32693;SDS011;19084;44.716;10.218;2023-01-08T05:17:04;123.47;;;53.63;;
32693;SDS011;19084;44.716;10.218;2023-01-08T05:19:37;116.38;;;52.47;;
32693;SDS011;19084;44.716;10.218;2023-01-08T05:22:10;116.30;;;51.53;;
32693;SDS011;19084;44.716;10.218;2023-01-08T05:24:42;111.10;;;49.03;;
32693;SDS011;19084;44.716;10.218;2023-01-08T05:27:15;113.30;;;49.88;;
32693;SDS011;19084;44.716;10.218;2023-01-08T05:29:47;119.00;;;50.80;;
32693;SDS011;19084;44.716;10.218;2023-01-08T05:32:21;118.95;;;48.95;;
32693;SDS011;19084;44.716;10.218;2023-01-08T05:34:54;105.70;;;47.58;;
32693;SDS011;19084;44.716;10.218;2023-01-08T05:37:26;107.22;;;45.70;;
32693;SDS011;19084;44.716;10.218;2023-01-08T05:39:59;111.70;;;47.63;;
32693;SDS011;19084;44.716;10.218;2023-01-08T05:42:33;123.47;;;48.30;;
32693;SDS011;19084;44.716;10.218;2023-01-08T05:45:06;120.97;;;50.38;;
32693;SDS011;19084;44.716;10.218;2023-01-08T05:47:39;97.82;;;45.92;;
32693;SDS011;19084;44.716;10.218;2023-01-08T05:50:12;90.57;;;43.28;;
32693;SDS011;19084;44.716;10.218;2023-01-08T05:52:45;103.38;;;47.28;;
32693;SDS011;19084;44.716;10.218;2023-01-08T05:55:17;107.25;;;46.38;;
32693;SDS011;19084;44.716;10.218;2023-01-08T05:57:50;110.00;;;46.55;;
32693;SDS011;19084;44.716;10.218;2023-01-08T06:00:22;111.45;;;47.65;;
32693;SDS011;19084;44.716;10.218;2023-01-08T06:02:57;112.65;;;49.33;;
32693;SDS011;19084;44.716;10.218;2023-01-08T06:05:30;113.57;;;49.58;;
32693;SDS011;19084;44.716;10.218;2023-01-08T06:08:03;112.28;;;48.47;;
32693;SDS011;19084;44.716;10.218;2023-01-08T06:10:39;104.53;;;48.28;;
32693;SDS011;19084;44.716;10.218;2023-01-08T06:13:11;109.95;;;50.72;;
32693;SDS011;19084;44.716;10.218;2023-01-08T06:15:44;111.25;;;49.30;;
32693;SDS011;19084;44.716;10.218;2023-01-08T06:18:17;105.63;;;49.55;;
32693;SDS011;19084;44.716;10.218;2023-01-08T06:20:49;100.03;;;47.35;;
32693;SDS011;19084;44.716;10.218;2023-01-08T06:23:22;110.95;;;50.35;;
32693;SDS011;19084;44.716;10.218;2023-01-08T06:25:55;118.63;;;52.42;;
32693;SDS011;19084;44.716;10.218;2023-01-08T06:28:30;95.15;;;47.78;;
32693;SDS011;19084;44.716;10.218;2023-01-08T06:31:03;110.85;;;50.38;;
32693;SDS011;19084;44.716;10.218;2023-01-08T06:33:36;123.30;;;51.13;;
32693;SDS011;19084;44.716;10.218;2023-01-08T06:36:09;109.30;;;49.70;;
32693;SDS011;19084;44.716;10.218;2023-01-08T06:38:41;102.75;;;49.10;;
32693;SDS011;19084;44.716;10.218;2023-01-08T06:41:14;115.43;;;50.63;;
32693;SDS011;19084;44.716;10.218;2023-01-08T06:43:46;121.53;;;52.85;;
32693;SDS011;19084;44.716;10.218;2023-01-08T06:46:19;121.22;;;53.38;;
32693;SDS011;19084;44.716;10.218;2023-01-08T06:48:51;126.10;;;52.88;;
32693;SDS011;19084;44.716;10.218;2023-01-08T06:51:24;140.52;;;54.00;;
32693;SDS011;19084;44.716;10.218;2023-01-08T06:53:56;143.82;;;55.10;;
32693;SDS011;19084;44.716;10.218;2023-01-08T06:56:28;121.68;;;51.30;;
32693;SDS011;19084;44.716;10.218;2023-01-08T06:59:01;128.75;;;53.97;;
32693;SDS011;19084;44.716;10.218;2023-01-08T07:01:34;148.73;;;58.67;;
32693;SDS011;19084;44.716;10.218;2023-01-08T07:04:07;128.45;;;54.17;;
32693;SDS011;19084;44.716;10.218;2023-01-08T07:06:40;142.98;;;58.53;;
32693;SDS011;19084;44.716;10.218;2023-01-08T07:09:13;154.98;;;58.75;;
32693;SDS011;19084;44.716;10.218;2023-01-08T07:11:46;132.95;;;55.22;;
32693;SDS011;19084;44.716;10.218;2023-01-08T07:14:18;163.90;;;60.15;;
32693;SDS011;19084;44.716;10.218;2023-01-08T07:16:51;138.95;;;54.33;;
32693;SDS011;19084;44.716;10.218;2023-01-08T07:19:24;149.13;;;57.63;;
32693;SDS011;19084;44.716;10.218;2023-01-08T07:21:56;145.13;;;58.17;;
32693;SDS011;19084;44.716;10.218;2023-01-08T07:24:29;155.00;;;60.63;;
32693;SDS011;19084;44.716;10.218;2023-01-08T07:27:01;155.70;;;58.83;;
32693;SDS011;19084;44.716;10.218;2023-01-08T07:29:34;134.00;;;55.50;;
32693;SDS011;19084;44.716;10.218;2023-01-08T07:32:06;149.45;;;58.88;;
32693;SDS011;19084;44.716;10.218;2023-01-08T07:34:39;148.63;;;57.63;;
32693;SDS011;19084;44.716;10.218;2023-01-08T07:37:12;160.38;;;58.97;;
32693;SDS011;19084;44.716;10.218;2023-01-08T07:39:45;130.10;;;55.08;;
32693;SDS011;19084;44.716;10.218;2023-01-08T07:42:18;159.55;;;59.78;;
32693;SDS011;19084;44.716;10.218;2023-01-08T07:44:50;185.05;;;60.85;;
32693;SDS011;19084;44.716;10.218;2023-01-08T07:47:23;152.20;;;58.30;;
32693;SDS011;19084;44.716;10.218;2023-01-08T07:49:56;179.05;;;62.95;;
32693;SDS011;19084;44.716;10.218;2023-01-08T07:52:28;172.20;;;63.22;;
32693;SDS011;19084;44.716;10.218;2023-01-08T07:55:01;175.05;;;62.30;;
32693;SDS011;19084;44.716;10.218;2023-01-08T07:57:34;227.30;;;68.55;;
32693;SDS011;19084;44.716;10.218;2023-01-08T08:00:06;234.60;;;69.15;;
32693;SDS011;19084;44.716;10.218;2023-01-08T08:02:41;216.60;;;68.32;;
32693;SDS011;19084;44.716;10.218;2023-01-08T08:05:14;192.43;;;67.38;;
32693;SDS011;19084;44.716;10.218;2023-01-08T08:07:48;198.03;;;68.40;;
32693;SDS011;19084;44.716;10.218;2023-01-08T08:10:20;203.23;;;67.97;;
32693;SDS011;19084;44.716;10.218;2023-01-08T08:12:53;214.70;;;70.80;;
32693;SDS011;19084;44.716;10.218;2023-01-08T08:15:26;221.70;;;73.93;;
32693;SDS011;19084;44.716;10.218;2023-01-08T08:17:58;193.13;;;70.05;;
32693;SDS011;19084;44.716;10.218;2023-01-08T08:20:31;193.10;;;67.38;;
32693;SDS011;19084;44.716;10.218;2023-01-08T08:23:07;183.90;;;66.88;;
32693;SDS011;19084;44.716;10.218;2023-01-08T08:25:41;209.35;;;70.85;;
32693;SDS011;19084;44.716;10.218;2023-01-08T08:28:14;184.45;;;67.93;;
32693;SDS011;19084;44.716;10.218;2023-01-08T08:30:46;205.63;;;69.07;;
32693;SDS011;19084;44.716;10.218;2023-01-08T08:33:19;177.38;;;65.45;;
32693;SDS011;19084;44.716;10.218;2023-01-08T08:35:52;154.98;;;63.17;;
32693;SDS011;19084;44.716;10.218;2023-01-08T08:38:24;171.98;;;63.30;;
32693;SDS011;19084;44.716;10.218;2023-01-08T08:40:57;142.90;;;59.75;;
32693;SDS011;19084;44.716;10.218;2023-01-08T08:43:30;175.20;;;65.13;;
32693;SDS011;19084;44.716;10.218;2023-01-08T08:46:02;157.95;;;62.67;;
32693;SDS011;19084;44.716;10.218;2023-01-08T08:48:35;162.70;;;61.20;;
32693;SDS011;19084;44.716;10.218;2023-01-08T08:51:08;154.45;;;63.75;;
32693;SDS011;19084;44.716;10.218;2023-01-08T08:53:41;185.95;;;66.93;;
32693;SDS011;19084;44.716;10.218;2023-01-08T08:56:13;144.57;;;59.78;;
32693;SDS011;19084;44.716;10.218;2023-01-08T08:58:46;155.23;;;63.33;;
32693;SDS011;19084;44.716;10.218;2023-01-08T09:01:18;156.30;;;60.92;;
32693;SDS011;19084;44.716;10.218;2023-01-08T09:03:51;136.07;;;58.80;;
32693;SDS011;19084;44.716;10.218;2023-01-08T09:06:24;135.00;;;59.75;;
32693;SDS011;19084;44.716;10.218;2023-01-08T09:08:58;156.43;;;60.85;;
32693;SDS011;19084;44.716;10.218;2023-01-08T09:11:31;153.23;;;60.70;;
32693;SDS011;19084;44.716;10.218;2023-01-08T09:14:03;144.70;;;59.00;;
32693;SDS011;19084;44.716;10.218;2023-01-08T09:16:36;143.20;;;58.05;;
32693;SDS011;19084;44.716;10.218;2023-01-08T09:19:09;154.23;;;64.07;;
32693;SDS011;19084;44.716;10.218;2023-01-08T09:21:42;161.82;;;64.45;;
32693;SDS011;19084;44.716;10.218;2023-01-08T09:24:14;168.15;;;63.22;;
32693;SDS011;19084;44.716;10.218;2023-01-08T09:26:47;144.55;;;62.80;;
32693;SDS011;19084;44.716;10.218;2023-01-08T09:29:20;148.25;;;59.25;;
32693;SDS011;19084;44.716;10.218;2023-01-08T09:31:52;165.05;;;61.55;;
32693;SDS011;19084;44.716;10.218;2023-01-08T09:34:26;140.18;;;59.13;;
32693;SDS011;19084;44.716;10.218;2023-01-08T09:36:59;169.25;;;62.28;;
32693;SDS011;19084;44.716;10.218;2023-01-08T09:39:31;163.05;;;62.28;;
32693;SDS011;19084;44.716;10.218;2023-01-08T09:42:04;189.68;;;65.10;;
32693;SDS011;19084;44.716;10.218;2023-01-08T09:44:39;210.48;;;67.22;;
32693;SDS011;19084;44.716;10.218;2023-01-08T09:47:19;225.02;;;67.82;;
32693;SDS011;19084;44.716;10.218;2023-01-08T09:50:00;238.52;;;70.50;;
32693;SDS011;19084;44.716;10.218;2023-01-08T09:52:37;426.58;;;78.30;;
32693;SDS011;19084;44.716;10.218;2023-01-08T09:55:11;323.05;;;69.90;;
32693;SDS011;19084;44.716;10.218;2023-01-08T09:57:45;477.88;;;79.28;;
32693;SDS011;19084;44.716;10.218;2023-01-08T10:00:23;403.73;;;82.47;;
32693;SDS011;19084;44.716;10.218;2023-01-08T10:03:01;315.92;;;72.60;;
32693;SDS011;19084;44.716;10.218;2023-01-08T10:05:34;342.45;;;77.90;;
32693;SDS011;19084;44.716;10.218;2023-01-08T10:08:10;306.98;;;73.18;;
32693;SDS011;19084;44.716;10.218;2023-01-08T10:10:45;318.80;;;76.45;;
32693;SDS011;19084;44.716;10.218;2023-01-08T10:13:18;530.53;;;88.30;;
32693;SDS011;19084;44.716;10.218;2023-01-08T10:15:50;392.65;;;86.45;;
32693;SDS011;19084;44.716;10.218;2023-01-08T10:18:23;730.45;;;104.45;;
32693;SDS011;19084;44.716;10.218;2023-01-08T10:20:57;254.25;;;75.57;;
32693;SDS011;19084;44.716;10.218;2023-01-08T10:23:30;361.25;;;76.20;;
32693;SDS011;19084;44.716;10.218;2023-01-08T10:26:02;319.73;;;73.18;;
32693;SDS011;19084;44.716;10.218;2023-01-08T10:28:35;338.48;;;80.72;;
32693;SDS011;19084;44.716;10.218;2023-01-08T10:31:10;277.00;;;76.45;;
32693;SDS011;19084;44.716;10.218;2023-01-08T10:33:48;520.20;;;79.72;;
32693;SDS011;19084;44.716;10.218;2023-01-08T10:36:22;270.02;;;69.78;;
32693;SDS011;19084;44.716;10.218;2023-01-08T10:38:58;513.20;;;87.43;;
32693;SDS011;19084;44.716;10.218;2023-01-08T10:41:36;471.55;;;80.28;;
32693;SDS011;19084;44.716;10.218;2023-01-08T10:44:14;503.73;;;83.20;;
32693;SDS011;19084;44.716;10.218;2023-01-08T10:46:49;641.30;;;99.35;;
32693;SDS011;19084;44.716;10.218;2023-01-08T10:51:59;345.00;;;76.47;;
32693;SDS011;19084;44.716;10.218;2023-01-08T11:00:00;420.23;;;74.78;;
32693;SDS011;19084;44.716;10.218;2023-01-08T11:02:36;373.13;;;76.78;;
32693;SDS011;19084;44.716;10.218;2023-01-08T11:05:11;378.40;;;72.72;;
32693;SDS011;19084;44.716;10.218;2023-01-08T11:07:47;482.83;;;87.55;;
32693;SDS011;19084;44.716;10.218;2023-01-08T11:10:23;347.17;;;77.47;;
32693;SDS011;19084;44.716;10.218;2023-01-08T11:12:58;245.82;;;73.95;;
32693;SDS011;19084;44.716;10.218;2023-01-08T11:15:35;397.30;;;79.47;;
32693;SDS011;19084;44.716;10.218;2023-01-08T11:20:49;459.85;;;83.13;;
32693;SDS011;19084;44.716;10.218;2023-01-08T11:23:24;483.38;;;82.13;;
32693;SDS011;19084;44.716;10.218;2023-01-08T11:37:20;476.70;;;83.40;;
32693;SDS011;19084;44.716;10.218;2023-01-08T11:39:59;643.40;;;99.10;;
32693;SDS011;19084;44.716;10.218;2023-01-08T11:45:27;350.15;;;77.80;;
32693;SDS011;19084;44.716;10.218;2023-01-08T11:53:46;428.00;;;91.03;;
32693;SDS011;19084;44.716;10.218;2023-01-08T12:02:00;221.23;;;70.13;;
32693;SDS011;19084;44.716;10.218;2023-01-08T12:05:00;261.90;;;73.25;;
32693;SDS011;19084;44.716;10.218;2023-01-08T12:28:02;172.38;;;58.95;;
32693;SDS011;19084;44.716;10.218;2023-01-08T12:36:35;187.43;;;62.00;;
32693;SDS011;19084;44.716;10.218;2023-01-08T12:39:15;145.18;;;54.30;;
32693;SDS011;19084;44.716;10.218;2023-01-08T12:41:53;143.73;;;53.08;;
32693;SDS011;19084;44.716;10.218;2023-01-08T12:44:35;142.80;;;53.65;;
32693;SDS011;19084;44.716;10.218;2023-01-08T12:47:12;163.70;;;54.92;;
32693;SDS011;19084;44.716;10.218;2023-01-08T12:52:41;136.73;;;50.17;;
32693;SDS011;19084;44.716;10.218;2023-01-08T12:55:25;135.23;;;52.92;;
32693;SDS011;19084;44.716;10.218;2023-01-08T12:58:18;127.90;;;46.10;;
32693;SDS011;19084;44.716;10.218;2023-01-08T13:01:03;146.27;;;49.25;;
32693;SDS011;19084;44.716;10.218;2023-01-08T13:03:48;106.10;;;41.78;;
32693;SDS011;19084;44.716;10.218;2023-01-08T13:06:21;123.50;;;46.40;;
32693;SDS011;19084;44.716;10.218;2023-01-08T13:08:55;114.05;;;41.63;;
32693;SDS011;19084;44.716;10.218;2023-01-08T13:11:33;113.55;;;43.20;;
32693;SDS011;19084;44.716;10.218;2023-01-08T13:14:10;119.50;;;44.55;;
32693;SDS011;19084;44.716;10.218;2023-01-08T13:16:45;124.07;;;44.58;;
32693;SDS011;19084;44.716;10.218;2023-01-08T13:19:22;119.65;;;43.90;;
32693;SDS011;19084;44.716;10.218;2023-01-08T13:21:57;120.97;;;43.83;;
32693;SDS011;19084;44.716;10.218;2023-01-08T13:29:49;121.28;;;46.15;;
32693;SDS011;19084;44.716;10.218;2023-01-08T13:32:23;132.88;;;49.40;;
32693;SDS011;19084;44.716;10.218;2023-01-08T13:35:01;121.10;;;45.33;;
32693;SDS011;19084;44.716;10.218;2023-01-08T13:51:39;126.65;;;49.22;;
32693;SDS011;19084;44.716;10.218;2023-01-08T13:54:17;113.53;;;47.20;;
32693;SDS011;19084;44.716;10.218;2023-01-08T13:56:54;129.18;;;50.40;;
32693;SDS011;19084;44.716;10.218;2023-01-08T13:59:36;113.13;;;49.55;;
32693;SDS011;19084;44.716;10.218;2023-01-08T14:05:01;123.30;;;53.35;;
32693;SDS011;19084;44.716;10.218;2023-01-08T14:07:52;117.15;;;49.85;;
32693;SDS011;19084;44.716;10.218;2023-01-08T14:10:27;131.45;;;54.13;;
32693;SDS011;19084;44.716;10.218;2023-01-08T14:13:05;118.00;;;51.47;;
32693;SDS011;19084;44.716;10.218;2023-01-08T14:15:39;117.97;;;47.40;;
32693;SDS011;19084;44.716;10.218;2023-01-08T14:18:12;127.95;;;53.13;;
32693;SDS011;19084;44.716;10.218;2023-01-08T14:20:47;134.27;;;56.53;;
32693;SDS011;19084;44.716;10.218;2023-01-08T14:23:24;132.75;;;53.60;;
32693;SDS011;19084;44.716;10.218;2023-01-08T14:26:01;130.50;;;53.25;;
32693;SDS011;19084;44.716;10.218;2023-01-08T14:28:37;130.85;;;52.55;;
32693;SDS011;19084;44.716;10.218;2023-01-08T14:31:16;145.07;;;54.10;;
32693;SDS011;19084;44.716;10.218;2023-01-08T14:33:53;156.05;;;57.75;;
32693;SDS011;19084;44.716;10.218;2023-01-08T14:36:28;172.60;;;57.17;;
32693;SDS011;19084;44.716;10.218;2023-01-08T14:39:00;217.77;;;60.95;;
32693;SDS011;19084;44.716;10.218;2023-01-08T14:41:41;230.15;;;68.85;;
32693;SDS011;19084;44.716;10.218;2023-01-08T14:44:32;172.45;;;58.22;;
32693;SDS011;19084;44.716;10.218;2023-01-08T14:47:15;191.63;;;56.83;;
32693;SDS011;19084;44.716;10.218;2023-01-08T14:49:50;181.40;;;58.15;;
32693;SDS011;19084;44.716;10.218;2023-01-08T14:54:57;151.95;;;54.25;;
32693;SDS011;19084;44.716;10.218;2023-01-08T14:57:33;160.30;;;54.13;;
32693;SDS011;19084;44.716;10.218;2023-01-08T15:00:13;172.55;;;55.97;;
32693;SDS011;19084;44.716;10.218;2023-01-08T15:02:49;156.13;;;53.22;;
32693;SDS011;19084;44.716;10.218;2023-01-08T15:05:29;162.55;;;54.38;;
32693;SDS011;19084;44.716;10.218;2023-01-08T15:10:56;148.50;;;53.72;;
32693;SDS011;19084;44.716;10.218;2023-01-08T15:13:40;160.82;;;53.00;;
32693;SDS011;19084;44.716;10.218;2023-01-08T15:19:18;150.70;;;49.65;;
32693;SDS011;19084;44.716;10.218;2023-01-08T15:21:58;160.93;;;50.97;;
32693;SDS011;19084;44.716;10.218;2023-01-08T15:24:33;147.50;;;49.80;;
32693;SDS011;19084;44.716;10.218;2023-01-08T15:27:16;184.75;;;53.30;;
32693;SDS011;19084;44.716;10.218;2023-01-08T15:29:51;310.23;;;61.45;;
32693;SDS011;19084;44.716;10.218;2023-01-08T15:32:35;247.95;;;59.63;;
32693;SDS011;19084;44.716;10.218;2023-01-08T15:35:13;181.85;;;56.60;;
32693;SDS011;19084;44.716;10.218;2023-01-08T15:37:48;311.40;;;61.67;;
32693;SDS011;19084;44.716;10.218;2023-01-08T15:40:22;505.05;;;79.85;;
32693;SDS011;19084;44.716;10.218;2023-01-08T15:42:55;320.90;;;66.97;;
32693;SDS011;19084;44.716;10.218;2023-01-08T15:45:45;243.85;;;62.33;;
32693;SDS011;19084;44.716;10.218;2023-01-08T15:48:19;254.52;;;64.05;;
32693;SDS011;19084;44.716;10.218;2023-01-08T15:50:52;342.25;;;66.32;;
32693;SDS011;19084;44.716;10.218;2023-01-08T15:53:25;319.77;;;65.70;;
32693;SDS011;19084;44.716;10.218;2023-01-08T15:55:58;375.58;;;68.95;;
32693;SDS011;19084;44.716;10.218;2023-01-08T15:58:30;229.02;;;61.15;;
32693;SDS011;19084;44.716;10.218;2023-01-08T16:01:03;239.77;;;63.20;;
32693;SDS011;19084;44.716;10.218;2023-01-08T16:03:36;158.18;;;57.92;;
32693;SDS011;19084;44.716;10.218;2023-01-08T16:06:09;253.88;;;67.15;;
32693;SDS011;19084;44.716;10.218;2023-01-08T16:08:42;225.93;;;63.63;;
32693;SDS011;19084;44.716;10.218;2023-01-08T16:11:16;216.65;;;65.10;;
32693;SDS011;19084;44.716;10.218;2023-01-08T16:13:50;248.65;;;66.38;;
32693;SDS011;19084;44.716;10.218;2023-01-08T16:16:23;188.77;;;61.42;;
32693;SDS011;19084;44.716;10.218;2023-01-08T16:18:57;187.90;;;65.80;;
32693;SDS011;19084;44.716;10.218;2023-01-08T16:21:30;317.88;;;74.43;;
32693;SDS011;19084;44.716;10.218;2023-01-08T16:24:03;196.00;;;63.95;;
32693;SDS011;19084;44.716;10.218;2023-01-08T16:26:36;184.02;;;65.18;;
32693;SDS011;19084;44.716;10.218;2023-01-08T16:29:11;202.48;;;62.15;;
32693;SDS011;19084;44.716;10.218;2023-01-08T16:31:44;257.52;;;70.40;;
32693;SDS011;19084;44.716;10.218;2023-01-08T16:34:18;198.65;;;63.03;;
32693;SDS011;19084;44.716;10.218;2023-01-08T16:36:51;162.70;;;62.90;;
32693;SDS011;19084;44.716;10.218;2023-01-08T16:39:25;171.73;;;66.95;;
32693;SDS011;19084;44.716;10.218;2023-01-08T16:41:58;198.15;;;69.45;;
32693;SDS011;19084;44.716;10.218;2023-01-08T16:44:33;227.93;;;70.45;;